sensor_id;sensor_type;location;lat;lon;timestamp;P1;durP1;ratioP1;P2;durP2;ratioP2
52768;SDS011;40471;44.534;18.644;2024-01-15T00:02:08;116.33;;;81.37;;
52768;SDS011;40471;44.534;18.644;2024-01-15T00:04:40;133.35;;;85.80;;
52768;SDS011;40471;44.534;18.644;2024-01-15T00:07:06;134.88;;;82.80;;
52768;SDS011;40471;44.534;18.644;2024-01-15T00:09:32;147.50;;;85.07;;
52768;SDS011;40471;44.534;18.644;2024-01-15T00:11:59;150.30;;;88.57;;
52768;SDS011;40471;44.534;18.644;2024-01-15T00:14:25;133.27;;;77.35;;
52768;SDS011;40471;44.534;18.644;2024-01-15T00:16:52;133.90;;;86.30;;
52768;SDS011;40471;44.534;18.644;2024-01-15T00:19:20;137.40;;;87.05;;
52768;SDS011;40471;44.534;18.644;2024-01-15T00:21:46;151.68;;;87.18;;
52768;SDS011;40471;44.534;18.644;2024-01-15T00:24:12;136.70;;;82.90;;
52768;SDS011;40471;44.534;18.644;2024-01-15T00:26:38;134.35;;;82.30;;
52768;SDS011;40471;44.534;18.644;2024-01-15T00:29:03;156.23;;;99.53;;
52768;SDS011;40471;44.534;18.644;2024-01-15T00:31:30;130.77;;;82.40;;
52768;SDS011;40471;44.534;18.644;2024-01-15T00:33:56;148.80;;;91.33;;
52768;SDS011;40471;44.534;18.644;2024-01-15T00:38:48;154.85;;;92.40;;
52768;SDS011;40471;44.534;18.644;2024-01-15T00:41:14;129.18;;;83.28;;
52768;SDS011;40471;44.534;18.644;2024-01-15T00:43:40;120.82;;;78.70;;
52768;SDS011;40471;44.534;18.644;2024-01-15T00:46:06;124.67;;;79.17;;
52768;SDS011;40471;44.534;18.644;2024-01-15T00:48:32;126.88;;;72.47;;
52768;SDS011;40471;44.534;18.644;2024-01-15T00:50:58;136.20;;;88.85;;
52768;SDS011;40471;44.534;18.644;2024-01-15T00:53:25;138.77;;;80.37;;
52768;SDS011;40471;44.534;18.644;2024-01-15T00:55:50;132.38;;;83.70;;
52768;SDS011;40471;44.534;18.644;2024-01-15T00:58:16;120.57;;;81.80;;
52768;SDS011;40471;44.534;18.644;2024-01-15T01:00:42;119.65;;;73.85;;
52768;SDS011;40471;44.534;18.644;2024-01-15T01:03:08;167.90;;;98.05;;
52768;SDS011;40471;44.534;18.644;2024-01-15T01:05:34;126.20;;;81.17;;
52768;SDS011;40471;44.534;18.644;2024-01-15T01:08:00;134.32;;;79.32;;
52768;SDS011;40471;44.534;18.644;2024-01-15T01:10:26;116.27;;;70.40;;
52768;SDS011;40471;44.534;18.644;2024-01-15T01:12:52;108.65;;;67.43;;
52768;SDS011;40471;44.534;18.644;2024-01-15T01:15:18;112.82;;;79.82;;
52768;SDS011;40471;44.534;18.644;2024-01-15T01:17:45;106.93;;;75.30;;
52768;SDS011;40471;44.534;18.644;2024-01-15T01:20:11;99.13;;;59.03;;
52768;SDS011;40471;44.534;18.644;2024-01-15T01:22:37;115.13;;;55.17;;
52768;SDS011;40471;44.534;18.644;2024-01-15T01:25:03;109.78;;;63.53;;
52768;SDS011;40471;44.534;18.644;2024-01-15T01:27:29;160.23;;;91.43;;
52768;SDS011;40471;44.534;18.644;2024-01-15T01:29:55;89.50;;;52.83;;
52768;SDS011;40471;44.534;18.644;2024-01-15T01:32:20;99.50;;;46.13;;
52768;SDS011;40471;44.534;18.644;2024-01-15T01:34:46;89.88;;;51.33;;
52768;SDS011;40471;44.534;18.644;2024-01-15T01:37:12;90.82;;;54.35;;
52768;SDS011;40471;44.534;18.644;2024-01-15T01:39:41;75.38;;;50.13;;
52768;SDS011;40471;44.534;18.644;2024-01-15T01:42:07;72.82;;;50.78;;
52768;SDS011;40471;44.534;18.644;2024-01-15T01:44:33;66.30;;;47.17;;
52768;SDS011;40471;44.534;18.644;2024-01-15T01:46:59;78.65;;;48.95;;
52768;SDS011;40471;44.534;18.644;2024-01-15T01:49:28;68.28;;;43.13;;
52768;SDS011;40471;44.534;18.644;2024-01-15T01:51:58;84.75;;;52.80;;
52768;SDS011;40471;44.534;18.644;2024-01-15T01:54:26;64.97;;;41.72;;
52768;SDS011;40471;44.534;18.644;2024-01-15T01:56:55;85.20;;;52.95;;
52768;SDS011;40471;44.534;18.644;2024-01-15T01:59:22;77.05;;;44.55;;
52768;SDS011;40471;44.534;18.644;2024-01-15T02:01:50;75.22;;;43.13;;
52768;SDS011;40471;44.534;18.644;2024-01-15T02:04:18;80.03;;;47.40;;
52768;SDS011;40471;44.534;18.644;2024-01-15T02:06:44;76.97;;;43.97;;
52768;SDS011;40471;44.534;18.644;2024-01-15T02:09:10;56.43;;;35.73;;
52768;SDS011;40471;44.534;18.644;2024-01-15T02:11:40;75.72;;;43.70;;
52768;SDS011;40471;44.534;18.644;2024-01-15T02:14:06;57.05;;;35.85;;
52768;SDS011;40471;44.534;18.644;2024-01-15T02:16:33;63.78;;;38.58;;
52768;SDS011;40471;44.534;18.644;2024-01-15T02:18:59;63.83;;;38.63;;
52768;SDS011;40471;44.534;18.644;2024-01-15T02:21:25;68.00;;;38.50;;
52768;SDS011;40471;44.534;18.644;2024-01-15T02:23:53;69.38;;;41.10;;
52768;SDS011;40471;44.534;18.644;2024-01-15T02:26:22;68.25;;;38.40;;
52768;SDS011;40471;44.534;18.644;2024-01-15T02:28:48;59.17;;;43.20;;
52768;SDS011;40471;44.534;18.644;2024-01-15T02:33:41;72.68;;;40.42;;
52768;SDS011;40471;44.534;18.644;2024-01-15T02:38:33;62.75;;;38.83;;
52768;SDS011;40471;44.534;18.644;2024-01-15T02:40:59;58.05;;;38.75;;
52768;SDS011;40471;44.534;18.644;2024-01-15T02:43:24;61.92;;;34.85;;
52768;SDS011;40471;44.534;18.644;2024-01-15T02:45:50;55.00;;;37.45;;
52768;SDS011;40471;44.534;18.644;2024-01-15T02:48:16;73.60;;;35.95;;
52768;SDS011;40471;44.534;18.644;2024-01-15T02:50:42;59.73;;;36.20;;
52768;SDS011;40471;44.534;18.644;2024-01-15T02:53:07;51.75;;;29.98;;
52768;SDS011;40471;44.534;18.644;2024-01-15T02:55:33;50.83;;;32.73;;
52768;SDS011;40471;44.534;18.644;2024-01-15T02:57:59;63.50;;;38.83;;
52768;SDS011;40471;44.534;18.644;2024-01-15T03:00:24;43.22;;;31.30;;
52768;SDS011;40471;44.534;18.644;2024-01-15T03:02:50;39.58;;;29.27;;
52768;SDS011;40471;44.534;18.644;2024-01-15T03:05:16;47.23;;;27.83;;
52768;SDS011;40471;44.534;18.644;2024-01-15T03:07:42;51.72;;;31.38;;
52768;SDS011;40471;44.534;18.644;2024-01-15T03:10:08;53.83;;;28.40;;
52768;SDS011;40471;44.534;18.644;2024-01-15T03:12:34;39.77;;;26.43;;
52768;SDS011;40471;44.534;18.644;2024-01-15T03:15:00;36.63;;;23.67;;
52768;SDS011;40471;44.534;18.644;2024-01-15T03:17:26;42.50;;;28.30;;
52768;SDS011;40471;44.534;18.644;2024-01-15T03:19:52;40.75;;;27.42;;
52768;SDS011;40471;44.534;18.644;2024-01-15T03:22:18;41.05;;;24.35;;
52768;SDS011;40471;44.534;18.644;2024-01-15T03:27:43;41.92;;;25.42;;
52768;SDS011;40471;44.534;18.644;2024-01-15T03:30:09;52.53;;;32.33;;
52768;SDS011;40471;44.534;18.644;2024-01-15T03:32:35;53.72;;;34.90;;
52768;SDS011;40471;44.534;18.644;2024-01-15T03:35:01;48.50;;;30.77;;
52768;SDS011;40471;44.534;18.644;2024-01-15T03:37:26;48.17;;;34.77;;
52768;SDS011;40471;44.534;18.644;2024-01-15T03:39:52;56.88;;;35.22;;
52768;SDS011;40471;44.534;18.644;2024-01-15T03:42:18;47.90;;;34.97;;
52768;SDS011;40471;44.534;18.644;2024-01-15T03:44:44;47.00;;;28.90;;
52768;SDS011;40471;44.534;18.644;2024-01-15T03:47:09;39.95;;;24.55;;
52768;SDS011;40471;44.534;18.644;2024-01-15T03:49:35;38.78;;;25.88;;
52768;SDS011;40471;44.534;18.644;2024-01-15T03:52:01;34.88;;;26.70;;
52768;SDS011;40471;44.534;18.644;2024-01-15T03:54:26;32.58;;;20.48;;
52768;SDS011;40471;44.534;18.644;2024-01-15T03:56:52;46.45;;;27.90;;
52768;SDS011;40471;44.534;18.644;2024-01-15T03:59:18;62.85;;;30.30;;
52768;SDS011;40471;44.534;18.644;2024-01-15T04:01:50;54.37;;;27.47;;
52768;SDS011;40471;44.534;18.644;2024-01-15T04:04:16;35.95;;;22.60;;
52768;SDS011;40471;44.534;18.644;2024-01-15T04:06:42;32.70;;;21.02;;
52768;SDS011;40471;44.534;18.644;2024-01-15T04:09:08;37.78;;;25.00;;
52768;SDS011;40471;44.534;18.644;2024-01-15T04:11:33;29.33;;;23.67;;
52768;SDS011;40471;44.534;18.644;2024-01-15T04:13:59;42.75;;;23.50;;
52768;SDS011;40471;44.534;18.644;2024-01-15T04:16:25;41.22;;;23.45;;
52768;SDS011;40471;44.534;18.644;2024-01-15T04:18:50;41.88;;;26.13;;
52768;SDS011;40471;44.534;18.644;2024-01-15T04:21:19;43.90;;;23.20;;
52768;SDS011;40471;44.534;18.644;2024-01-15T04:23:45;24.15;;;17.40;;
52768;SDS011;40471;44.534;18.644;2024-01-15T04:26:10;24.42;;;16.65;;
52768;SDS011;40471;44.534;18.644;2024-01-15T04:28:36;26.30;;;19.67;;
52768;SDS011;40471;44.534;18.644;2024-01-15T04:31:02;28.98;;;19.92;;
52768;SDS011;40471;44.534;18.644;2024-01-15T04:33:27;29.17;;;19.60;;
52768;SDS011;40471;44.534;18.644;2024-01-15T04:35:53;30.55;;;19.65;;
52768;SDS011;40471;44.534;18.644;2024-01-15T04:38:19;40.03;;;22.60;;
52768;SDS011;40471;44.534;18.644;2024-01-15T04:40:46;31.70;;;20.73;;
52768;SDS011;40471;44.534;18.644;2024-01-15T04:43:11;20.77;;;13.10;;
52768;SDS011;40471;44.534;18.644;2024-01-15T04:45:37;20.65;;;14.32;;
52768;SDS011;40471;44.534;18.644;2024-01-15T04:48:03;33.80;;;24.52;;
52768;SDS011;40471;44.534;18.644;2024-01-15T04:50:29;36.10;;;22.57;;
52768;SDS011;40471;44.534;18.644;2024-01-15T04:52:54;29.38;;;20.70;;
52768;SDS011;40471;44.534;18.644;2024-01-15T04:55:20;33.03;;;20.00;;
52768;SDS011;40471;44.534;18.644;2024-01-15T04:57:46;39.87;;;22.10;;
52768;SDS011;40471;44.534;18.644;2024-01-15T05:00:11;31.93;;;18.27;;
52768;SDS011;40471;44.534;18.644;2024-01-15T05:02:38;29.58;;;19.30;;
52768;SDS011;40471;44.534;18.644;2024-01-15T05:05:04;29.75;;;15.63;;
52768;SDS011;40471;44.534;18.644;2024-01-15T05:07:30;38.87;;;19.97;;
52768;SDS011;40471;44.534;18.644;2024-01-15T05:09:56;38.40;;;20.63;;
52768;SDS011;40471;44.534;18.644;2024-01-15T05:12:21;43.45;;;25.42;;
52768;SDS011;40471;44.534;18.644;2024-01-15T05:14:47;37.38;;;23.80;;
52768;SDS011;40471;44.534;18.644;2024-01-15T05:17:13;37.67;;;24.20;;
52768;SDS011;40471;44.534;18.644;2024-01-15T05:19:38;28.10;;;16.10;;
52768;SDS011;40471;44.534;18.644;2024-01-15T05:22:04;37.40;;;21.45;;
52768;SDS011;40471;44.534;18.644;2024-01-15T05:24:30;31.33;;;22.50;;
52768;SDS011;40471;44.534;18.644;2024-01-15T05:26:55;35.90;;;19.17;;
52768;SDS011;40471;44.534;18.644;2024-01-15T05:29:21;33.37;;;21.93;;
52768;SDS011;40471;44.534;18.644;2024-01-15T05:31:47;37.55;;;20.75;;
52768;SDS011;40471;44.534;18.644;2024-01-15T05:34:12;36.60;;;22.50;;
52768;SDS011;40471;44.534;18.644;2024-01-15T05:36:38;28.87;;;21.00;;
52768;SDS011;40471;44.534;18.644;2024-01-15T05:39:04;42.92;;;25.17;;
52768;SDS011;40471;44.534;18.644;2024-01-15T05:41:29;35.58;;;21.88;;
52768;SDS011;40471;44.534;18.644;2024-01-15T05:43:55;32.50;;;22.17;;
52768;SDS011;40471;44.534;18.644;2024-01-15T05:46:21;33.27;;;21.40;;
52768;SDS011;40471;44.534;18.644;2024-01-15T05:48:46;33.80;;;21.27;;
52768;SDS011;40471;44.534;18.644;2024-01-15T05:51:12;46.45;;;25.48;;
52768;SDS011;40471;44.534;18.644;2024-01-15T05:53:38;33.55;;;23.77;;
52768;SDS011;40471;44.534;18.644;2024-01-15T05:58:31;39.13;;;23.70;;
52768;SDS011;40471;44.534;18.644;2024-01-15T06:00:56;35.33;;;21.95;;
52768;SDS011;40471;44.534;18.644;2024-01-15T06:03:22;26.52;;;21.38;;
52768;SDS011;40471;44.534;18.644;2024-01-15T06:05:48;44.10;;;25.13;;
52768;SDS011;40471;44.534;18.644;2024-01-15T06:08:13;32.88;;;23.17;;
52768;SDS011;40471;44.534;18.644;2024-01-15T06:10:39;37.17;;;23.80;;
52768;SDS011;40471;44.534;18.644;2024-01-15T06:13:05;34.72;;;20.90;;
52768;SDS011;40471;44.534;18.644;2024-01-15T06:15:31;39.17;;;26.13;;
52768;SDS011;40471;44.534;18.644;2024-01-15T06:17:56;39.20;;;24.17;;
52768;SDS011;40471;44.534;18.644;2024-01-15T06:20:22;47.75;;;27.98;;
52768;SDS011;40471;44.534;18.644;2024-01-15T06:22:48;44.60;;;25.43;;
52768;SDS011;40471;44.534;18.644;2024-01-15T06:25:14;38.37;;;24.20;;
52768;SDS011;40471;44.534;18.644;2024-01-15T06:27:40;30.15;;;22.23;;
52768;SDS011;40471;44.534;18.644;2024-01-15T06:30:05;42.60;;;29.50;;
52768;SDS011;40471;44.534;18.644;2024-01-15T06:32:31;33.37;;;27.07;;
52768;SDS011;40471;44.534;18.644;2024-01-15T06:34:57;40.60;;;26.80;;
52768;SDS011;40471;44.534;18.644;2024-01-15T06:37:23;43.33;;;26.27;;
52768;SDS011;40471;44.534;18.644;2024-01-15T06:39:49;47.90;;;27.67;;
52768;SDS011;40471;44.534;18.644;2024-01-15T06:42:14;50.17;;;29.67;;
52768;SDS011;40471;44.534;18.644;2024-01-15T06:44:40;58.30;;;29.63;;
52768;SDS011;40471;44.534;18.644;2024-01-15T07:03:56;54.38;;;33.47;;
52768;SDS011;40471;44.534;18.644;2024-01-15T07:06:22;41.17;;;29.55;;
52768;SDS011;40471;44.534;18.644;2024-01-15T07:08:48;56.70;;;40.93;;
52768;SDS011;40471;44.534;18.644;2024-01-15T07:11:14;60.25;;;42.20;;
52768;SDS011;40471;44.534;18.644;2024-01-15T07:13:40;53.55;;;38.13;;
52768;SDS011;40471;44.534;18.644;2024-01-15T07:16:06;64.90;;;38.92;;
52768;SDS011;40471;44.534;18.644;2024-01-15T07:18:32;60.90;;;37.67;;
52768;SDS011;40471;44.534;18.644;2024-01-15T07:20:58;68.97;;;41.30;;
52768;SDS011;40471;44.534;18.644;2024-01-15T07:23:24;66.63;;;40.35;;
52768;SDS011;40471;44.534;18.644;2024-01-15T07:25:50;86.93;;;52.78;;
52768;SDS011;40471;44.534;18.644;2024-01-15T07:28:15;128.80;;;68.43;;
52768;SDS011;40471;44.534;18.644;2024-01-15T07:30:41;85.87;;;53.87;;
52768;SDS011;40471;44.534;18.644;2024-01-15T07:33:07;95.03;;;57.67;;
52768;SDS011;40471;44.534;18.644;2024-01-15T07:35:33;88.20;;;50.80;;
52768;SDS011;40471;44.534;18.644;2024-01-15T07:37:58;91.00;;;55.30;;
52768;SDS011;40471;44.534;18.644;2024-01-15T07:40:25;129.13;;;66.78;;
52768;SDS011;40471;44.534;18.644;2024-01-15T07:42:51;73.77;;;45.03;;
52768;SDS011;40471;44.534;18.644;2024-01-15T07:45:17;123.35;;;67.45;;
52768;SDS011;40471;44.534;18.644;2024-01-15T07:47:43;95.20;;;56.43;;
52768;SDS011;40471;44.534;18.644;2024-01-15T07:50:10;101.57;;;60.30;;
52768;SDS011;40471;44.534;18.644;2024-01-15T07:52:42;102.65;;;56.00;;
52768;SDS011;40471;44.534;18.644;2024-01-15T07:55:20;85.75;;;53.40;;
52768;SDS011;40471;44.534;18.644;2024-01-15T07:57:46;100.60;;;59.97;;
52768;SDS011;40471;44.534;18.644;2024-01-15T08:00:11;95.53;;;57.67;;
52768;SDS011;40471;44.534;18.644;2024-01-15T08:02:39;109.78;;;62.58;;
52768;SDS011;40471;44.534;18.644;2024-01-15T08:05:05;105.67;;;64.47;;
52768;SDS011;40471;44.534;18.644;2024-01-15T08:07:31;103.33;;;64.00;;
52768;SDS011;40471;44.534;18.644;2024-01-15T08:09:57;104.53;;;55.40;;
52768;SDS011;40471;44.534;18.644;2024-01-15T08:12:25;102.53;;;57.60;;
52768;SDS011;40471;44.534;18.644;2024-01-15T08:14:51;84.93;;;57.65;;
52768;SDS011;40471;44.534;18.644;2024-01-15T08:17:16;106.10;;;63.73;;
52768;SDS011;40471;44.534;18.644;2024-01-15T08:19:42;87.47;;;60.90;;
52768;SDS011;40471;44.534;18.644;2024-01-15T08:22:09;102.13;;;67.35;;
52768;SDS011;40471;44.534;18.644;2024-01-15T08:24:45;122.10;;;87.05;;
52768;SDS011;40471;44.534;18.644;2024-01-15T08:27:11;100.03;;;60.45;;
52768;SDS011;40471;44.534;18.644;2024-01-15T08:29:37;114.30;;;75.20;;
52768;SDS011;40471;44.534;18.644;2024-01-15T08:32:06;133.75;;;81.90;;
52768;SDS011;40471;44.534;18.644;2024-01-15T08:34:31;143.67;;;90.40;;
52768;SDS011;40471;44.534;18.644;2024-01-15T08:36:57;138.60;;;83.60;;
52768;SDS011;40471;44.534;18.644;2024-01-15T08:39:23;144.27;;;90.57;;
52768;SDS011;40471;44.534;18.644;2024-01-15T08:41:49;129.07;;;91.13;;
52768;SDS011;40471;44.534;18.644;2024-01-15T08:44:15;122.30;;;82.27;;
52768;SDS011;40471;44.534;18.644;2024-01-15T08:46:41;116.90;;;77.78;;
52768;SDS011;40471;44.534;18.644;2024-01-15T08:49:10;112.03;;;75.13;;
52768;SDS011;40471;44.534;18.644;2024-01-15T08:51:36;152.13;;;89.03;;
52768;SDS011;40471;44.534;18.644;2024-01-15T08:56:28;148.80;;;100.75;;
52768;SDS011;40471;44.534;18.644;2024-01-15T08:58:54;157.23;;;101.37;;
52768;SDS011;40471;44.534;18.644;2024-01-15T09:01:20;164.90;;;107.80;;
52768;SDS011;40471;44.534;18.644;2024-01-15T09:03:46;154.23;;;105.57;;
52768;SDS011;40471;44.534;18.644;2024-01-15T09:06:13;146.20;;;103.85;;
52768;SDS011;40471;44.534;18.644;2024-01-15T09:08:39;156.13;;;102.00;;
52768;SDS011;40471;44.534;18.644;2024-01-15T09:11:05;154.60;;;97.73;;
52768;SDS011;40471;44.534;18.644;2024-01-15T09:13:30;169.57;;;101.97;;
52768;SDS011;40471;44.534;18.644;2024-01-15T09:15:56;175.90;;;103.60;;
52768;SDS011;40471;44.534;18.644;2024-01-15T09:18:23;164.75;;;109.45;;
52768;SDS011;40471;44.534;18.644;2024-01-15T09:20:48;169.70;;;112.73;;
52768;SDS011;40471;44.534;18.644;2024-01-15T09:23:15;160.25;;;115.53;;
52768;SDS011;40471;44.534;18.644;2024-01-15T09:25:40;182.97;;;110.50;;
52768;SDS011;40471;44.534;18.644;2024-01-15T09:28:06;165.47;;;111.47;;
52768;SDS011;40471;44.534;18.644;2024-01-15T09:30:33;179.40;;;112.43;;
52768;SDS011;40471;44.534;18.644;2024-01-15T09:32:58;170.33;;;117.93;;
52768;SDS011;40471;44.534;18.644;2024-01-15T09:35:24;177.37;;;121.17;;
52768;SDS011;40471;44.534;18.644;2024-01-15T09:37:50;199.80;;;125.27;;
52768;SDS011;40471;44.534;18.644;2024-01-15T09:40:15;185.23;;;119.80;;
52768;SDS011;40471;44.534;18.644;2024-01-15T09:42:42;199.65;;;134.68;;
52768;SDS011;40471;44.534;18.644;2024-01-15T09:45:09;238.38;;;143.63;;
52768;SDS011;40471;44.534;18.644;2024-01-15T09:47:36;222.77;;;143.30;;
52768;SDS011;40471;44.534;18.644;2024-01-15T09:50:02;151.50;;;105.32;;
52768;SDS011;40471;44.534;18.644;2024-01-15T09:52:29;179.82;;;120.63;;
52768;SDS011;40471;44.534;18.644;2024-01-15T09:54:56;255.73;;;166.55;;
52768;SDS011;40471;44.534;18.644;2024-01-15T09:57:24;230.43;;;162.90;;
52768;SDS011;40471;44.534;18.644;2024-01-15T09:59:51;250.77;;;174.77;;
52768;SDS011;40471;44.534;18.644;2024-01-15T10:02:19;163.75;;;112.82;;
52768;SDS011;40471;44.534;18.644;2024-01-15T10:04:45;181.63;;;111.90;;
52768;SDS011;40471;44.534;18.644;2024-01-15T10:07:13;186.50;;;118.90;;
52768;SDS011;40471;44.534;18.644;2024-01-15T10:09:44;175.15;;;114.43;;
52768;SDS011;40471;44.534;18.644;2024-01-15T10:12:11;173.20;;;116.50;;
52768;SDS011;40471;44.534;18.644;2024-01-15T10:14:37;190.53;;;123.50;;
52768;SDS011;40471;44.534;18.644;2024-01-15T10:17:15;236.07;;;158.85;;
52768;SDS011;40471;44.534;18.644;2024-01-15T10:22:07;221.32;;;157.90;;
52768;SDS011;40471;44.534;18.644;2024-01-15T10:24:35;249.27;;;166.00;;
52768;SDS011;40471;44.534;18.644;2024-01-15T10:27:05;249.38;;;176.18;;
52768;SDS011;40471;44.534;18.644;2024-01-15T10:29:32;202.75;;;140.98;;
52768;SDS011;40471;44.534;18.644;2024-01-15T10:31:57;199.60;;;140.20;;
52768;SDS011;40471;44.534;18.644;2024-01-15T10:34:24;184.00;;;121.05;;
52768;SDS011;40471;44.534;18.644;2024-01-15T10:36:50;172.52;;;120.15;;
52768;SDS011;40471;44.534;18.644;2024-01-15T10:39:23;239.13;;;159.00;;
52768;SDS011;40471;44.534;18.644;2024-01-15T10:41:50;219.63;;;149.60;;
52768;SDS011;40471;44.534;18.644;2024-01-15T10:44:16;205.38;;;140.38;;
52768;SDS011;40471;44.534;18.644;2024-01-15T10:46:43;208.75;;;144.30;;
52768;SDS011;40471;44.534;18.644;2024-01-15T10:49:11;204.10;;;142.65;;
52768;SDS011;40471;44.534;18.644;2024-01-15T10:51:37;240.30;;;150.13;;
52768;SDS011;40471;44.534;18.644;2024-01-15T10:54:03;217.60;;;162.37;;
52768;SDS011;40471;44.534;18.644;2024-01-15T10:56:30;220.45;;;154.38;;
52768;SDS011;40471;44.534;18.644;2024-01-15T10:58:58;219.57;;;144.40;;
52768;SDS011;40471;44.534;18.644;2024-01-15T11:01:25;211.93;;;155.10;;
52768;SDS011;40471;44.534;18.644;2024-01-15T11:03:51;230.73;;;150.98;;
52768;SDS011;40471;44.534;18.644;2024-01-15T11:06:17;222.33;;;148.27;;
52768;SDS011;40471;44.534;18.644;2024-01-15T11:08:46;212.13;;;141.68;;
52768;SDS011;40471;44.534;18.644;2024-01-15T11:11:15;221.35;;;140.23;;
52768;SDS011;40471;44.534;18.644;2024-01-15T11:13:42;209.48;;;141.52;;
52768;SDS011;40471;44.534;18.644;2024-01-15T11:16:12;207.90;;;143.82;;
52768;SDS011;40471;44.534;18.644;2024-01-15T11:18:43;237.40;;;163.93;;
52768;SDS011;40471;44.534;18.644;2024-01-15T12:08:37;235.30;;;175.68;;
52768;SDS011;40471;44.534;18.644;2024-01-15T12:11:39;283.35;;;205.80;;
52768;SDS011;40471;44.534;18.644;2024-01-15T12:14:11;278.73;;;201.85;;
52768;SDS011;40471;44.534;18.644;2024-01-15T12:16:37;257.13;;;174.07;;
52768;SDS011;40471;44.534;18.644;2024-01-15T12:19:03;249.13;;;163.37;;
52768;SDS011;40471;44.534;18.644;2024-01-15T12:21:28;233.30;;;165.77;;
52768;SDS011;40471;44.534;18.644;2024-01-15T12:23:55;248.03;;;175.13;;
52768;SDS011;40471;44.534;18.644;2024-01-15T12:28:49;240.15;;;171.50;;
52768;SDS011;40471;44.534;18.644;2024-01-15T12:31:16;258.35;;;170.60;;
52768;SDS011;40471;44.534;18.644;2024-01-15T12:33:42;232.77;;;165.40;;
52768;SDS011;40471;44.534;18.644;2024-01-15T12:36:08;253.63;;;170.80;;
52768;SDS011;40471;44.534;18.644;2024-01-15T12:38:33;230.90;;;168.83;;
52768;SDS011;40471;44.534;18.644;2024-01-15T12:41:00;235.77;;;170.77;;
52768;SDS011;40471;44.534;18.644;2024-01-15T12:43:26;241.15;;;181.40;;
52768;SDS011;40471;44.534;18.644;2024-01-15T12:45:52;240.80;;;171.80;;
52768;SDS011;40471;44.534;18.644;2024-01-15T12:48:18;260.97;;;176.60;;
52768;SDS011;40471;44.534;18.644;2024-01-15T12:50:44;229.57;;;166.47;;
52768;SDS011;40471;44.534;18.644;2024-01-15T12:53:10;259.88;;;167.98;;
52768;SDS011;40471;44.534;18.644;2024-01-15T12:55:36;253.43;;;165.43;;
52768;SDS011;40471;44.534;18.644;2024-01-15T12:58:02;269.87;;;166.27;;
52768;SDS011;40471;44.534;18.644;2024-01-15T13:00:28;228.10;;;170.07;;
52768;SDS011;40471;44.534;18.644;2024-01-15T13:02:54;283.60;;;175.57;;
52768;SDS011;40471;44.534;18.644;2024-01-15T13:05:21;242.73;;;177.13;;
52768;SDS011;40471;44.534;18.644;2024-01-15T13:07:47;263.15;;;184.75;;
52768;SDS011;40471;44.534;18.644;2024-01-15T13:10:13;272.93;;;182.70;;
52768;SDS011;40471;44.534;18.644;2024-01-15T13:12:40;260.02;;;182.02;;
52768;SDS011;40471;44.534;18.644;2024-01-15T13:15:05;259.75;;;191.02;;
52768;SDS011;40471;44.534;18.644;2024-01-15T13:17:36;239.25;;;175.88;;
52768;SDS011;40471;44.534;18.644;2024-01-15T13:20:02;240.38;;;173.00;;
52768;SDS011;40471;44.534;18.644;2024-01-15T13:22:29;266.98;;;188.48;;
52768;SDS011;40471;44.534;18.644;2024-01-15T13:24:57;293.45;;;220.05;;
52768;SDS011;40471;44.534;18.644;2024-01-15T13:27:23;305.70;;;222.35;;
52768;SDS011;40471;44.534;18.644;2024-01-15T13:29:49;338.57;;;256.00;;
52768;SDS011;40471;44.534;18.644;2024-01-15T13:32:17;372.75;;;275.23;;
52768;SDS011;40471;44.534;18.644;2024-01-15T13:34:54;297.23;;;215.63;;
52768;SDS011;40471;44.534;18.644;2024-01-15T13:37:20;316.52;;;226.38;;
52768;SDS011;40471;44.534;18.644;2024-01-15T13:39:46;305.53;;;221.60;;
52768;SDS011;40471;44.534;18.644;2024-01-15T13:42:12;321.10;;;245.00;;
52768;SDS011;40471;44.534;18.644;2024-01-15T13:44:38;338.90;;;243.73;;
52768;SDS011;40471;44.534;18.644;2024-01-15T13:47:04;342.53;;;258.30;;
52768;SDS011;40471;44.534;18.644;2024-01-15T13:49:30;323.80;;;264.55;;
52768;SDS011;40471;44.534;18.644;2024-01-15T13:51:56;337.73;;;251.23;;
52768;SDS011;40471;44.534;18.644;2024-01-15T13:54:22;451.67;;;372.13;;
52768;SDS011;40471;44.534;18.644;2024-01-15T13:56:48;447.07;;;370.67;;
52768;SDS011;40471;44.534;18.644;2024-01-15T14:01:40;428.88;;;339.08;;
52768;SDS011;40471;44.534;18.644;2024-01-15T14:06:33;494.38;;;402.20;;
52768;SDS011;40471;44.534;18.644;2024-01-15T14:08:58;436.10;;;346.90;;
52768;SDS011;40471;44.534;18.644;2024-01-15T14:11:24;424.47;;;333.80;;
52768;SDS011;40471;44.534;18.644;2024-01-15T14:13:50;401.20;;;305.53;;
52768;SDS011;40471;44.534;18.644;2024-01-15T14:16:16;430.07;;;330.50;;
52768;SDS011;40471;44.534;18.644;2024-01-15T14:18:41;319.97;;;223.60;;
52768;SDS011;40471;44.534;18.644;2024-01-15T14:21:07;286.60;;;210.30;;
52768;SDS011;40471;44.534;18.644;2024-01-15T14:23:33;249.07;;;191.67;;
52768;SDS011;40471;44.534;18.644;2024-01-15T14:25:59;252.93;;;177.70;;
52768;SDS011;40471;44.534;18.644;2024-01-15T14:28:25;229.37;;;164.47;;
52768;SDS011;40471;44.534;18.644;2024-01-15T14:30:50;234.40;;;172.20;;
52768;SDS011;40471;44.534;18.644;2024-01-15T14:33:17;228.15;;;155.73;;
52768;SDS011;40471;44.534;18.644;2024-01-15T14:35:43;223.13;;;162.67;;
52768;SDS011;40471;44.534;18.644;2024-01-15T14:38:09;243.85;;;155.25;;
52768;SDS011;40471;44.534;18.644;2024-01-15T14:40:35;217.70;;;160.70;;
52768;SDS011;40471;44.534;18.644;2024-01-15T14:43:02;241.48;;;178.05;;
52768;SDS011;40471;44.534;18.644;2024-01-15T14:45:28;234.38;;;165.88;;
52768;SDS011;40471;44.534;18.644;2024-01-15T14:50:22;232.73;;;177.60;;
52768;SDS011;40471;44.534;18.644;2024-01-15T14:52:48;342.83;;;253.13;;
52768;SDS011;40471;44.534;18.644;2024-01-15T14:55:14;429.60;;;341.30;;
52768;SDS011;40471;44.534;18.644;2024-01-15T14:57:40;440.60;;;354.73;;
52768;SDS011;40471;44.534;18.644;2024-01-15T15:00:06;345.70;;;244.30;;
52768;SDS011;40471;44.534;18.644;2024-01-15T15:02:34;374.42;;;278.67;;
52768;SDS011;40471;44.534;18.644;2024-01-15T15:05:01;318.80;;;227.50;;
52768;SDS011;40471;44.534;18.644;2024-01-15T15:07:27;369.13;;;282.60;;
52768;SDS011;40471;44.534;18.644;2024-01-15T15:09:53;339.23;;;257.77;;
52768;SDS011;40471;44.534;18.644;2024-01-15T15:12:19;215.87;;;162.77;;
52768;SDS011;40471;44.534;18.644;2024-01-15T15:14:44;211.63;;;159.73;;
52768;SDS011;40471;44.534;18.644;2024-01-15T15:17:10;219.17;;;162.37;;
52768;SDS011;40471;44.534;18.644;2024-01-15T15:19:37;223.93;;;166.98;;
52768;SDS011;40471;44.534;18.644;2024-01-15T15:22:03;227.67;;;161.53;;
52768;SDS011;40471;44.534;18.644;2024-01-15T15:24:29;231.45;;;160.98;;